Terminal Aerodrome Forecast
Issued by NWS

Home | Current Version | Previous Version | Text Only | Print | Product List | Glossary On
Versions: 1 2 3 4 5 6 7 8 9 10 11 12 13 14 15 16 17 18 19 20 21 22 23 24
789
FTUS44 KOUN 022320
TAFCSM
TAF
KCSM 022320Z 0300/0324 05016KT P6SM SCT070 BKN110
     FM030300 07012KT 6SM -RA SCT015 OVC035
     FM030500 07010KT 5SM -RA OVC010
      TEMPO 0305/0307 OVC009
     FM030900 05010KT 4SM -RA OVC009=

USA.gov is the U.S. government's official web portal to all federal, state and local government web resources and services.